
<gpx xmlns="http://www.topografix.com/GPX/1/1" xmlns:gpxx="http://www.garmin.com/xmlschemas/GpxExtensions/v3" xmlns:xsi="http://www.w3.org/2001/XMLSchema-instance" version="1.1" creator="Adze - http://kobotsw.com/apps/adze" xsi:schemaLocation="http://www.topografix.com/GPX/1/1 http://www.topografix.com/GPX/1/1/gpx.xsd http://www.garmin.com/xmlschemas/GpxExtensions/v3 http://www.garmin.com/xmlschemas/GpxExtensionsv3.xsd">
    <metadata>
        <name>Untitled Document</name>
        <link href="http://www.garmin.com"></link>
        <time>2018-02-26T03:58:15.176Z</time>
    </metadata>
    <wpt lon="100.943067" lat="14.518200">
        <ele>63.000000</ele>
        <time>2015-09-26T04:37:36Z</time>
        <name>BaanDaraResort</name>
        <cmt>26-SEP-15 11:37:36AM</cmt>
        <desc>26-SEP-15 11:37:36AM</desc>
        <sym>Lodging</sym>
        <extensions>
            <gpxx:WaypointExtension xmlns:gpxx="http://www.garmin.com/xmlschemas/GpxExtensions/v3">
                <gpxx:DisplayMode>SymbolOnly</gpxx:DisplayMode>
            </gpxx:WaypointExtension>
        </extensions>
    </wpt>
    <wpt lon="100.948287" lat="14.457567">
        <ele>39.000000</ele>
        <time>2015-09-26T07:35:13Z</time>
        <name>Water Saturday</name>
        <sym>Drinking Water</sym>
        <extensions>
            <gpxx:WaypointExtension xmlns:gpxx="http://www.garmin.com/xmlschemas/GpxExtensions/v3">
                <gpxx:DisplayMode>SymbolOnly</gpxx:DisplayMode>
            </gpxx:WaypointExtension>
        </extensions>
    </wpt>
    <trk>
        <name>Saturday</name>
        <extensions>
            <gpxx:TrackExtension xmlns:gpxx="http://www.garmin.com/xmlschemas/GpxExtensions/v3">
                <gpxx:DisplayColor>Red</gpxx:DisplayColor>
            </gpxx:TrackExtension>
        </extensions>
        <trkseg>
            <trkpt lon="100.942992" lat="14.518172">
                <ele>65.510000</ele>
                <time>2015-09-26T04:36:34Z</time>
            </trkpt>
            <trkpt lon="100.943093" lat="14.518242">
                <ele>76.080000</ele>
                <time>2015-09-26T05:54:31Z</time>
            </trkpt>
            <trkpt lon="100.943020" lat="14.518650">
                <ele>81.370000</ele>
                <time>2015-09-26T05:55:30Z</time>
            </trkpt>
            <trkpt lon="100.942960" lat="14.518637">
                <ele>77.520000</ele>
                <time>2015-09-26T05:55:39Z</time>
            </trkpt>
            <trkpt lon="100.942979" lat="14.518603">
                <ele>69.830000</ele>
                <time>2015-09-26T05:55:48Z</time>
            </trkpt>
            <trkpt lon="100.942994" lat="14.518593">
                <ele>62.620000</ele>
                <time>2015-09-26T05:55:57Z</time>
            </trkpt>
            <trkpt lon="100.942829" lat="14.518598">
                <ele>42.920000</ele>
                <time>2015-09-26T05:59:56Z</time>
            </trkpt>
            <trkpt lon="100.942807" lat="14.518497">
                <ele>42.920000</ele>
                <time>2015-09-26T06:00:02Z</time>
            </trkpt>
            <trkpt lon="100.943140" lat="14.517022">
                <ele>43.400000</ele>
                <time>2015-09-26T06:00:46Z</time>
            </trkpt>
            <trkpt lon="100.943125" lat="14.515795">
                <ele>42.920000</ele>
                <time>2015-09-26T06:01:13Z</time>
            </trkpt>
            <trkpt lon="100.943633" lat="14.515695">
                <ele>40.510000</ele>
                <time>2015-09-26T06:01:30Z</time>
            </trkpt>
            <trkpt lon="100.944002" lat="14.515279">
                <ele>38.590000</ele>
                <time>2015-09-26T06:01:49Z</time>
            </trkpt>
            <trkpt lon="100.944944" lat="14.515121">
                <ele>36.190000</ele>
                <time>2015-09-26T06:02:16Z</time>
            </trkpt>
            <trkpt lon="100.945624" lat="14.515273">
                <ele>35.710000</ele>
                <time>2015-09-26T06:02:41Z</time>
            </trkpt>
            <trkpt lon="100.946260" lat="14.515266">
                <ele>34.740000</ele>
                <time>2015-09-26T06:03:03Z</time>
            </trkpt>
            <trkpt lon="100.946384" lat="14.515018">
                <ele>33.780000</ele>
                <time>2015-09-26T06:03:14Z</time>
            </trkpt>
            <trkpt lon="100.945970" lat="14.514348">
                <ele>35.710000</ele>
                <time>2015-09-26T06:03:46Z</time>
            </trkpt>
            <trkpt lon="100.945747" lat="14.514192">
                <ele>36.670000</ele>
                <time>2015-09-26T06:03:55Z</time>
            </trkpt>
            <trkpt lon="100.945386" lat="14.513777">
                <ele>36.670000</ele>
                <time>2015-09-26T06:04:10Z</time>
            </trkpt>
            <trkpt lon="100.945091" lat="14.513641">
                <ele>37.150000</ele>
                <time>2015-09-26T06:04:21Z</time>
            </trkpt>
            <trkpt lon="100.944692" lat="14.512378">
                <ele>39.550000</ele>
                <time>2015-09-26T06:05:03Z</time>
            </trkpt>
            <trkpt lon="100.944146" lat="14.511926">
                <ele>41.950000</ele>
                <time>2015-09-26T06:05:29Z</time>
            </trkpt>
            <trkpt lon="100.944592" lat="14.511295">
                <ele>42.440000</ele>
                <time>2015-09-26T06:05:52Z</time>
            </trkpt>
            <trkpt lon="100.945335" lat="14.510777">
                <ele>43.400000</ele>
                <time>2015-09-26T06:06:17Z</time>
            </trkpt>
            <trkpt lon="100.945217" lat="14.510592">
                <ele>43.880000</ele>
                <time>2015-09-26T06:06:26Z</time>
            </trkpt>
            <trkpt lon="100.943297" lat="14.509642">
                <ele>53.490000</ele>
                <time>2015-09-26T06:07:36Z</time>
            </trkpt>
            <trkpt lon="100.942877" lat="14.509573">
                <ele>52.530000</ele>
                <time>2015-09-26T06:07:48Z</time>
            </trkpt>
            <trkpt lon="100.942008" lat="14.510450">
                <ele>49.650000</ele>
                <time>2015-09-26T06:08:17Z</time>
            </trkpt>
            <trkpt lon="100.941241" lat="14.510696">
                <ele>45.320000</ele>
                <time>2015-09-26T06:08:33Z</time>
            </trkpt>
            <trkpt lon="100.940807" lat="14.511136">
                <ele>44.840000</ele>
                <time>2015-09-26T06:08:48Z</time>
            </trkpt>
            <trkpt lon="100.938482" lat="14.511282">
                <ele>45.320000</ele>
                <time>2015-09-26T06:09:34Z</time>
            </trkpt>
            <trkpt lon="100.938449" lat="14.511297">
                <ele>44.840000</ele>
                <time>2015-09-26T06:09:43Z</time>
            </trkpt>
            <trkpt lon="100.939456" lat="14.511165">
                <ele>44.840000</ele>
                <time>2015-09-26T06:10:21Z</time>
            </trkpt>
            <trkpt lon="100.939083" lat="14.510986">
                <ele>43.400000</ele>
                <time>2015-09-26T06:10:36Z</time>
            </trkpt>
            <trkpt lon="100.938561" lat="14.510991">
                <ele>44.360000</ele>
                <time>2015-09-26T06:10:47Z</time>
            </trkpt>
            <trkpt lon="100.938055" lat="14.510663">
                <ele>45.320000</ele>
                <time>2015-09-26T06:11:00Z</time>
            </trkpt>
            <trkpt lon="100.938212" lat="14.509966">
                <ele>45.800000</ele>
                <time>2015-09-26T06:11:19Z</time>
            </trkpt>
            <trkpt lon="100.937883" lat="14.509545">
                <ele>46.760000</ele>
                <time>2015-09-26T06:11:32Z</time>
            </trkpt>
            <trkpt lon="100.937559" lat="14.508440">
                <ele>49.650000</ele>
                <time>2015-09-26T06:12:31Z</time>
            </trkpt>
            <trkpt lon="100.937400" lat="14.507994">
                <ele>50.130000</ele>
                <time>2015-09-26T06:12:53Z</time>
            </trkpt>
            <trkpt lon="100.937498" lat="14.507996">
                <ele>50.130000</ele>
                <time>2015-09-26T06:13:03Z</time>
            </trkpt>
            <trkpt lon="100.937736" lat="14.509087">
                <ele>46.760000</ele>
                <time>2015-09-26T06:18:54Z</time>
            </trkpt>
            <trkpt lon="100.937536" lat="14.508735">
                <ele>47.720000</ele>
                <time>2015-09-26T06:19:15Z</time>
            </trkpt>
            <trkpt lon="100.937072" lat="14.508496">
                <ele>47.720000</ele>
                <time>2015-09-26T06:19:41Z</time>
            </trkpt>
            <trkpt lon="100.936462" lat="14.508396">
                <ele>45.800000</ele>
                <time>2015-09-26T06:20:22Z</time>
            </trkpt>
            <trkpt lon="100.935348" lat="14.508601">
                <ele>42.440000</ele>
                <time>2015-09-26T06:20:55Z</time>
            </trkpt>
            <trkpt lon="100.935290" lat="14.508206">
                <ele>46.280000</ele>
                <time>2015-09-26T06:21:43Z</time>
            </trkpt>
            <trkpt lon="100.934822" lat="14.508248">
                <ele>45.320000</ele>
                <time>2015-09-26T06:22:11Z</time>
            </trkpt>
            <trkpt lon="100.934579" lat="14.508042">
                <ele>45.320000</ele>
                <time>2015-09-26T06:22:24Z</time>
            </trkpt>
            <trkpt lon="100.935204" lat="14.506285">
                <ele>50.610000</ele>
                <time>2015-09-26T06:23:17Z</time>
            </trkpt>
            <trkpt lon="100.935075" lat="14.506033">
                <ele>51.090000</ele>
                <time>2015-09-26T06:23:24Z</time>
            </trkpt>
            <trkpt lon="100.934443" lat="14.505674">
                <ele>51.090000</ele>
                <time>2015-09-26T06:23:41Z</time>
            </trkpt>
            <trkpt lon="100.934111" lat="14.504539">
                <ele>49.160000</ele>
                <time>2015-09-26T06:24:07Z</time>
            </trkpt>
            <trkpt lon="100.933238" lat="14.503698">
                <ele>47.240000</ele>
                <time>2015-09-26T06:24:27Z</time>
            </trkpt>
            <trkpt lon="100.932726" lat="14.503505">
                <ele>45.800000</ele>
                <time>2015-09-26T06:24:35Z</time>
            </trkpt>
            <trkpt lon="100.932309" lat="14.503142">
                <ele>44.360000</ele>
                <time>2015-09-26T06:24:43Z</time>
            </trkpt>
            <trkpt lon="100.932206" lat="14.502365">
                <ele>44.360000</ele>
                <time>2015-09-26T06:24:56Z</time>
            </trkpt>
            <trkpt lon="100.931744" lat="14.501779">
                <ele>42.920000</ele>
                <time>2015-09-26T06:25:08Z</time>
            </trkpt>
            <trkpt lon="100.930615" lat="14.501667">
                <ele>39.070000</ele>
                <time>2015-09-26T06:25:23Z</time>
            </trkpt>
            <trkpt lon="100.928819" lat="14.502125">
                <ele>37.630000</ele>
                <time>2015-09-26T06:25:48Z</time>
            </trkpt>
            <trkpt lon="100.927563" lat="14.501486">
                <ele>35.710000</ele>
                <time>2015-09-26T06:26:12Z</time>
            </trkpt>
            <trkpt lon="100.927902" lat="14.499174">
                <ele>35.230000</ele>
                <time>2015-09-26T06:27:07Z</time>
            </trkpt>
            <trkpt lon="100.928432" lat="14.498659">
                <ele>36.190000</ele>
                <time>2015-09-26T06:27:31Z</time>
            </trkpt>
            <trkpt lon="100.931499" lat="14.498889">
                <ele>43.400000</ele>
                <time>2015-09-26T06:29:27Z</time>
            </trkpt>
            <trkpt lon="100.934085" lat="14.499477">
                <ele>58.780000</ele>
                <time>2015-09-26T06:31:50Z</time>
            </trkpt>
            <trkpt lon="100.934687" lat="14.498678">
                <ele>63.580000</ele>
                <time>2015-09-26T06:32:48Z</time>
            </trkpt>
            <trkpt lon="100.934783" lat="14.497662">
                <ele>66.950000</ele>
                <time>2015-09-26T06:33:52Z</time>
            </trkpt>
            <trkpt lon="100.934824" lat="14.496967">
                <ele>64.550000</ele>
                <time>2015-09-26T06:34:19Z</time>
            </trkpt>
            <trkpt lon="100.934680" lat="14.496344">
                <ele>62.620000</ele>
                <time>2015-09-26T06:34:45Z</time>
            </trkpt>
            <trkpt lon="100.933945" lat="14.495989">
                <ele>58.780000</ele>
                <time>2015-09-26T06:35:31Z</time>
            </trkpt>
            <trkpt lon="100.934068" lat="14.495372">
                <ele>57.820000</ele>
                <time>2015-09-26T06:35:56Z</time>
            </trkpt>
            <trkpt lon="100.934004" lat="14.494451">
                <ele>62.140000</ele>
                <time>2015-09-26T06:36:30Z</time>
            </trkpt>
            <trkpt lon="100.934122" lat="14.494232">
                <ele>64.550000</ele>
                <time>2015-09-26T06:36:45Z</time>
            </trkpt>
            <trkpt lon="100.934831" lat="14.493573">
                <ele>65.510000</ele>
                <time>2015-09-26T06:37:21Z</time>
            </trkpt>
            <trkpt lon="100.935420" lat="14.493399">
                <ele>68.390000</ele>
                <time>2015-09-26T06:37:55Z</time>
            </trkpt>
            <trkpt lon="100.935669" lat="14.493239">
                <ele>68.870000</ele>
                <time>2015-09-26T06:38:08Z</time>
            </trkpt>
            <trkpt lon="100.935981" lat="14.492646">
                <ele>66.950000</ele>
                <time>2015-09-26T06:38:33Z</time>
            </trkpt>
            <trkpt lon="100.936240" lat="14.492408">
                <ele>65.030000</ele>
                <time>2015-09-26T06:38:58Z</time>
            </trkpt>
            <trkpt lon="100.936977" lat="14.492146">
                <ele>72.240000</ele>
                <time>2015-09-26T06:40:26Z</time>
            </trkpt>
            <trkpt lon="100.937528" lat="14.491613">
                <ele>71.760000</ele>
                <time>2015-09-26T06:41:13Z</time>
            </trkpt>
            <trkpt lon="100.938404" lat="14.491105">
                <ele>78.000000</ele>
                <time>2015-09-26T06:42:23Z</time>
            </trkpt>
            <trkpt lon="100.938662" lat="14.491151">
                <ele>81.370000</ele>
                <time>2015-09-26T06:43:07Z</time>
            </trkpt>
            <trkpt lon="100.939388" lat="14.490815">
                <ele>88.580000</ele>
                <time>2015-09-26T06:44:18Z</time>
            </trkpt>
            <trkpt lon="100.940396" lat="14.490564">
                <ele>86.660000</ele>
                <time>2015-09-26T06:45:07Z</time>
            </trkpt>
            <trkpt lon="100.941210" lat="14.490185">
                <ele>76.080000</ele>
                <time>2015-09-26T06:47:20Z</time>
            </trkpt>
            <trkpt lon="100.942710" lat="14.490244">
                <ele>59.740000</ele>
                <time>2015-09-26T06:48:14Z</time>
            </trkpt>
            <trkpt lon="100.943939" lat="14.489838">
                <ele>53.010000</ele>
                <time>2015-09-26T06:48:51Z</time>
            </trkpt>
            <trkpt lon="100.946395" lat="14.490072">
                <ele>46.280000</ele>
                <time>2015-09-26T06:49:48Z</time>
            </trkpt>
            <trkpt lon="100.946747" lat="14.489876">
                <ele>45.320000</ele>
                <time>2015-09-26T06:49:55Z</time>
            </trkpt>
            <trkpt lon="100.947069" lat="14.489474">
                <ele>45.800000</ele>
                <time>2015-09-26T06:50:04Z</time>
            </trkpt>
            <trkpt lon="100.947442" lat="14.488419">
                <ele>44.360000</ele>
                <time>2015-09-26T06:50:28Z</time>
            </trkpt>
            <trkpt lon="100.947516" lat="14.488265">
                <ele>43.880000</ele>
                <time>2015-09-26T06:50:31Z</time>
            </trkpt>
            <trkpt lon="100.947793" lat="14.487324">
                <ele>43.400000</ele>
                <time>2015-09-26T06:50:47Z</time>
            </trkpt>
            <trkpt lon="100.947490" lat="14.486409">
                <ele>41.950000</ele>
                <time>2015-09-26T06:51:03Z</time>
            </trkpt>
            <trkpt lon="100.947693" lat="14.486285">
                <ele>42.440000</ele>
                <time>2015-09-26T06:51:08Z</time>
            </trkpt>
            <trkpt lon="100.947726" lat="14.486111">
                <ele>42.440000</ele>
                <time>2015-09-26T06:51:11Z</time>
            </trkpt>
            <trkpt lon="100.946323" lat="14.481588">
                <ele>40.030000</ele>
                <time>2015-09-26T06:52:20Z</time>
            </trkpt>
            <trkpt lon="100.945919" lat="14.480475">
                <ele>38.110000</ele>
                <time>2015-09-26T06:52:37Z</time>
            </trkpt>
            <trkpt lon="100.945324" lat="14.479895">
                <ele>38.110000</ele>
                <time>2015-09-26T06:52:49Z</time>
            </trkpt>
            <trkpt lon="100.944604" lat="14.479675">
                <ele>37.630000</ele>
                <time>2015-09-26T06:53:01Z</time>
            </trkpt>
            <trkpt lon="100.942641" lat="14.478728">
                <ele>38.110000</ele>
                <time>2015-09-26T06:53:35Z</time>
            </trkpt>
            <trkpt lon="100.941428" lat="14.478409">
                <ele>38.590000</ele>
                <time>2015-09-26T06:53:55Z</time>
            </trkpt>
            <trkpt lon="100.939886" lat="14.477912">
                <ele>37.150000</ele>
                <time>2015-09-26T06:54:21Z</time>
            </trkpt>
            <trkpt lon="100.939743" lat="14.477730">
                <ele>37.630000</ele>
                <time>2015-09-26T06:54:25Z</time>
            </trkpt>
            <trkpt lon="100.940134" lat="14.476870">
                <ele>37.630000</ele>
                <time>2015-09-26T06:54:41Z</time>
            </trkpt>
            <trkpt lon="100.942428" lat="14.476934">
                <ele>38.590000</ele>
                <time>2015-09-26T06:55:19Z</time>
            </trkpt>
            <trkpt lon="100.942777" lat="14.476895">
                <ele>37.630000</ele>
                <time>2015-09-26T06:55:25Z</time>
            </trkpt>
            <trkpt lon="100.942820" lat="14.476734">
                <ele>38.110000</ele>
                <time>2015-09-26T06:55:28Z</time>
            </trkpt>
            <trkpt lon="100.942806" lat="14.476454">
                <ele>37.630000</ele>
                <time>2015-09-26T06:55:33Z</time>
            </trkpt>
            <trkpt lon="100.942953" lat="14.476319">
                <ele>37.630000</ele>
                <time>2015-09-26T06:55:38Z</time>
            </trkpt>
            <trkpt lon="100.949583" lat="14.476149">
                <ele>37.150000</ele>
                <time>2015-09-26T06:57:21Z</time>
            </trkpt>
            <trkpt lon="100.949616" lat="14.474674">
                <ele>36.190000</ele>
                <time>2015-09-26T06:57:54Z</time>
            </trkpt>
            <trkpt lon="100.949818" lat="14.474771">
                <ele>35.710000</ele>
                <time>2015-09-26T06:58:26Z</time>
            </trkpt>
            <trkpt lon="100.950584" lat="14.474592">
                <ele>36.190000</ele>
                <time>2015-09-26T06:58:47Z</time>
            </trkpt>
            <trkpt lon="100.950786" lat="14.474225">
                <ele>36.670000</ele>
                <time>2015-09-26T06:58:59Z</time>
            </trkpt>
            <trkpt lon="100.950529" lat="14.471845">
                <ele>36.190000</ele>
                <time>2015-09-26T06:59:49Z</time>
            </trkpt>
            <trkpt lon="100.950076" lat="14.470472">
                <ele>36.190000</ele>
                <time>2015-09-26T07:00:21Z</time>
            </trkpt>
            <trkpt lon="100.950373" lat="14.470315">
                <ele>36.190000</ele>
                <time>2015-09-26T07:00:29Z</time>
            </trkpt>
            <trkpt lon="100.950494" lat="14.469917">
                <ele>36.190000</ele>
                <time>2015-09-26T07:00:39Z</time>
            </trkpt>
            <trkpt lon="100.950467" lat="14.469167">
                <ele>37.630000</ele>
                <time>2015-09-26T07:00:56Z</time>
            </trkpt>
            <trkpt lon="100.950269" lat="14.468749">
                <ele>38.590000</ele>
                <time>2015-09-26T07:01:08Z</time>
            </trkpt>
            <trkpt lon="100.949842" lat="14.468673">
                <ele>39.550000</ele>
                <time>2015-09-26T07:01:20Z</time>
            </trkpt>
            <trkpt lon="100.948775" lat="14.468822">
                <ele>40.990000</ele>
                <time>2015-09-26T07:01:39Z</time>
            </trkpt>
            <trkpt lon="100.947251" lat="14.468859">
                <ele>41.950000</ele>
                <time>2015-09-26T07:02:06Z</time>
            </trkpt>
            <trkpt lon="100.946753" lat="14.468749">
                <ele>42.920000</ele>
                <time>2015-09-26T07:02:16Z</time>
            </trkpt>
            <trkpt lon="100.937681" lat="14.468817">
                <ele>39.070000</ele>
                <time>2015-09-26T07:04:55Z</time>
            </trkpt>
            <trkpt lon="100.937628" lat="14.468717">
                <ele>38.590000</ele>
                <time>2015-09-26T07:04:59Z</time>
            </trkpt>
            <trkpt lon="100.940289" lat="14.465316">
                <ele>42.440000</ele>
                <time>2015-09-26T07:09:42Z</time>
            </trkpt>
            <trkpt lon="100.943045" lat="14.461704">
                <ele>42.920000</ele>
                <time>2015-09-26T07:11:16Z</time>
            </trkpt>
            <trkpt lon="100.943882" lat="14.462113">
                <ele>41.950000</ele>
                <time>2015-09-26T07:11:39Z</time>
            </trkpt>
            <trkpt lon="100.944837" lat="14.461466">
                <ele>44.360000</ele>
                <time>2015-09-26T07:12:03Z</time>
            </trkpt>
            <trkpt lon="100.947210" lat="14.460433">
                <ele>48.680000</ele>
                <time>2015-09-26T07:12:59Z</time>
            </trkpt>
            <trkpt lon="100.947428" lat="14.459839">
                <ele>45.320000</ele>
                <time>2015-09-26T07:13:09Z</time>
            </trkpt>
            <trkpt lon="100.948385" lat="14.459298">
                <ele>44.360000</ele>
                <time>2015-09-26T07:13:24Z</time>
            </trkpt>
            <trkpt lon="100.948494" lat="14.459121">
                <ele>44.360000</ele>
                <time>2015-09-26T07:13:28Z</time>
            </trkpt>
            <trkpt lon="100.948294" lat="14.458824">
                <ele>44.360000</ele>
                <time>2015-09-26T07:13:35Z</time>
            </trkpt>
            <trkpt lon="100.948324" lat="14.458556">
                <ele>43.880000</ele>
                <time>2015-09-26T07:13:41Z</time>
            </trkpt>
            <trkpt lon="100.948010" lat="14.457749">
                <ele>45.800000</ele>
                <time>2015-09-26T07:14:04Z</time>
            </trkpt>
            <trkpt lon="100.948113" lat="14.457438">
                <ele>45.320000</ele>
                <time>2015-09-26T07:16:47Z</time>
            </trkpt>
            <trkpt lon="100.948343" lat="14.457587">
                <ele>45.800000</ele>
                <time>2015-09-26T07:39:37Z</time>
            </trkpt>
            <trkpt lon="100.950095" lat="14.456806">
                <ele>47.240000</ele>
                <time>2015-09-26T07:40:22Z</time>
            </trkpt>
            <trkpt lon="100.950282" lat="14.456403">
                <ele>48.200000</ele>
                <time>2015-09-26T07:40:36Z</time>
            </trkpt>
            <trkpt lon="100.950075" lat="14.456072">
                <ele>48.680000</ele>
                <time>2015-09-26T07:40:43Z</time>
            </trkpt>
            <trkpt lon="100.950098" lat="14.455850">
                <ele>50.130000</ele>
                <time>2015-09-26T07:40:55Z</time>
            </trkpt>
            <trkpt lon="100.950779" lat="14.455430">
                <ele>51.570000</ele>
                <time>2015-09-26T07:41:07Z</time>
            </trkpt>
            <trkpt lon="100.951973" lat="14.454526">
                <ele>50.610000</ele>
                <time>2015-09-26T07:41:30Z</time>
            </trkpt>
            <trkpt lon="100.953874" lat="14.450875">
                <ele>57.340000</ele>
                <time>2015-09-26T07:42:50Z</time>
            </trkpt>
            <trkpt lon="100.956187" lat="14.446347">
                <ele>61.180000</ele>
                <time>2015-09-26T07:44:24Z</time>
            </trkpt>
            <trkpt lon="100.956834" lat="14.445365">
                <ele>65.030000</ele>
                <time>2015-09-26T07:44:54Z</time>
            </trkpt>
            <trkpt lon="100.957192" lat="14.444973">
                <ele>65.510000</ele>
                <time>2015-09-26T07:45:04Z</time>
            </trkpt>
            <trkpt lon="100.958076" lat="14.443039">
                <ele>64.550000</ele>
                <time>2015-09-26T07:45:39Z</time>
            </trkpt>
            <trkpt lon="100.958213" lat="14.442835">
                <ele>62.620000</ele>
                <time>2015-09-26T07:45:43Z</time>
            </trkpt>
            <trkpt lon="100.962123" lat="14.437817">
                <ele>67.430000</ele>
                <time>2015-09-26T07:47:34Z</time>
            </trkpt>
            <trkpt lon="100.962381" lat="14.437552">
                <ele>67.430000</ele>
                <time>2015-09-26T07:47:42Z</time>
            </trkpt>
            <trkpt lon="100.962821" lat="14.437384">
                <ele>66.950000</ele>
                <time>2015-09-26T07:47:50Z</time>
            </trkpt>
            <trkpt lon="100.963804" lat="14.437311">
                <ele>71.270000</ele>
                <time>2015-09-26T07:48:20Z</time>
            </trkpt>
            <trkpt lon="100.964208" lat="14.437622">
                <ele>80.890000</ele>
                <time>2015-09-26T07:49:07Z</time>
            </trkpt>
            <trkpt lon="100.964484" lat="14.438044">
                <ele>85.210000</ele>
                <time>2015-09-26T07:49:37Z</time>
            </trkpt>
            <trkpt lon="100.964995" lat="14.438264">
                <ele>84.250000</ele>
                <time>2015-09-26T07:50:07Z</time>
            </trkpt>
            <trkpt lon="100.965008" lat="14.438617">
                <ele>86.660000</ele>
                <time>2015-09-26T07:50:25Z</time>
            </trkpt>
            <trkpt lon="100.964840" lat="14.438918">
                <ele>89.060000</ele>
                <time>2015-09-26T07:50:44Z</time>
            </trkpt>
            <trkpt lon="100.965346" lat="14.438817">
                <ele>99.630000</ele>
                <time>2015-09-26T07:51:32Z</time>
            </trkpt>
            <trkpt lon="100.965571" lat="14.438701">
                <ele>102.040000</ele>
                <time>2015-09-26T07:51:48Z</time>
            </trkpt>
            <trkpt lon="100.966095" lat="14.438594">
                <ele>103.000000</ele>
                <time>2015-09-26T07:52:17Z</time>
            </trkpt>
            <trkpt lon="100.966353" lat="14.438243">
                <ele>106.360000</ele>
                <time>2015-09-26T07:52:45Z</time>
            </trkpt>
            <trkpt lon="100.967042" lat="14.438311">
                <ele>112.610000</ele>
                <time>2015-09-26T07:53:31Z</time>
            </trkpt>
            <trkpt lon="100.967205" lat="14.437804">
                <ele>113.090000</ele>
                <time>2015-09-26T07:53:55Z</time>
            </trkpt>
            <trkpt lon="100.967592" lat="14.437488">
                <ele>113.570000</ele>
                <time>2015-09-26T07:54:10Z</time>
            </trkpt>
            <trkpt lon="100.968042" lat="14.437299">
                <ele>114.530000</ele>
                <time>2015-09-26T07:54:22Z</time>
            </trkpt>
            <trkpt lon="100.968353" lat="14.437398">
                <ele>115.500000</ele>
                <time>2015-09-26T07:54:34Z</time>
            </trkpt>
            <trkpt lon="100.968710" lat="14.437331">
                <ele>115.980000</ele>
                <time>2015-09-26T07:55:20Z</time>
            </trkpt>
            <trkpt lon="100.969542" lat="14.436743">
                <ele>121.260000</ele>
                <time>2015-09-26T07:56:11Z</time>
            </trkpt>
            <trkpt lon="100.969861" lat="14.436657">
                <ele>123.190000</ele>
                <time>2015-09-26T07:56:26Z</time>
            </trkpt>
            <trkpt lon="100.970211" lat="14.436722">
                <ele>124.150000</ele>
                <time>2015-09-26T07:56:41Z</time>
            </trkpt>
            <trkpt lon="100.971225" lat="14.436650">
                <ele>126.550000</ele>
                <time>2015-09-26T07:57:22Z</time>
            </trkpt>
            <trkpt lon="100.971737" lat="14.436299">
                <ele>130.880000</ele>
                <time>2015-09-26T07:57:54Z</time>
            </trkpt>
            <trkpt lon="100.971801" lat="14.435613">
                <ele>133.280000</ele>
                <time>2015-09-26T07:58:26Z</time>
            </trkpt>
            <trkpt lon="100.971892" lat="14.435182">
                <ele>131.360000</ele>
                <time>2015-09-26T07:58:38Z</time>
            </trkpt>
            <trkpt lon="100.972371" lat="14.434403">
                <ele>134.720000</ele>
                <time>2015-09-26T07:59:26Z</time>
            </trkpt>
            <trkpt lon="100.972529" lat="14.433628">
                <ele>138.090000</ele>
                <time>2015-09-26T08:00:10Z</time>
            </trkpt>
            <trkpt lon="100.972270" lat="14.432432">
                <ele>137.130000</ele>
                <time>2015-09-26T08:00:52Z</time>
            </trkpt>
            <trkpt lon="100.972677" lat="14.430989">
                <ele>141.450000</ele>
                <time>2015-09-26T08:01:46Z</time>
            </trkpt>
            <trkpt lon="100.972180" lat="14.430568">
                <ele>140.010000</ele>
                <time>2015-09-26T08:02:11Z</time>
            </trkpt>
            <trkpt lon="100.971440" lat="14.429601">
                <ele>141.450000</ele>
                <time>2015-09-26T08:03:01Z</time>
            </trkpt>
            <trkpt lon="100.971151" lat="14.428799">
                <ele>146.740000</ele>
                <time>2015-09-26T08:03:55Z</time>
            </trkpt>
            <trkpt lon="100.969969" lat="14.429334">
                <ele>151.540000</ele>
                <time>2015-09-26T08:05:14Z</time>
            </trkpt>
            <trkpt lon="100.969543" lat="14.429888">
                <ele>153.470000</ele>
                <time>2015-09-26T08:05:44Z</time>
            </trkpt>
            <trkpt lon="100.968950" lat="14.430527">
                <ele>152.030000</ele>
                <time>2015-09-26T08:06:21Z</time>
            </trkpt>
            <trkpt lon="100.967667" lat="14.431456">
                <ele>151.060000</ele>
                <time>2015-09-26T08:07:36Z</time>
            </trkpt>
            <trkpt lon="100.966850" lat="14.431811">
                <ele>155.390000</ele>
                <time>2015-09-26T08:08:20Z</time>
            </trkpt>
            <trkpt lon="100.966096" lat="14.431726">
                <ele>157.310000</ele>
                <time>2015-09-26T08:08:48Z</time>
            </trkpt>
            <trkpt lon="100.965321" lat="14.432110">
                <ele>162.600000</ele>
                <time>2015-09-26T08:09:50Z</time>
            </trkpt>
            <trkpt lon="100.964963" lat="14.432376">
                <ele>161.160000</ele>
                <time>2015-09-26T08:10:08Z</time>
            </trkpt>
            <trkpt lon="100.964573" lat="14.432471">
                <ele>158.750000</ele>
                <time>2015-09-26T08:10:21Z</time>
            </trkpt>
            <trkpt lon="100.963524" lat="14.432309">
                <ele>147.220000</ele>
                <time>2015-09-26T08:10:59Z</time>
            </trkpt>
            <trkpt lon="100.962305" lat="14.432752">
                <ele>130.400000</ele>
                <time>2015-09-26T08:12:21Z</time>
            </trkpt>
            <trkpt lon="100.962149" lat="14.432947">
                <ele>129.430000</ele>
                <time>2015-09-26T08:13:12Z</time>
            </trkpt>
            <trkpt lon="100.961701" lat="14.432942">
                <ele>124.630000</ele>
                <time>2015-09-26T08:13:38Z</time>
            </trkpt>
            <trkpt lon="100.961050" lat="14.433239">
                <ele>118.860000</ele>
                <time>2015-09-26T08:14:15Z</time>
            </trkpt>
            <trkpt lon="100.960553" lat="14.432926">
                <ele>124.630000</ele>
                <time>2015-09-26T08:15:12Z</time>
            </trkpt>
            <trkpt lon="100.960483" lat="14.433069">
                <ele>125.110000</ele>
                <time>2015-09-26T08:16:17Z</time>
            </trkpt>
            <trkpt lon="100.959265" lat="14.433583">
                <ele>124.630000</ele>
                <time>2015-09-26T08:17:15Z</time>
            </trkpt>
            <trkpt lon="100.958895" lat="14.433306">
                <ele>127.510000</ele>
                <time>2015-09-26T08:18:20Z</time>
            </trkpt>
            <trkpt lon="100.958788" lat="14.432979">
                <ele>131.360000</ele>
                <time>2015-09-26T08:19:15Z</time>
            </trkpt>
            <trkpt lon="100.958395" lat="14.431566">
                <ele>124.150000</ele>
                <time>2015-09-26T08:21:22Z</time>
            </trkpt>
            <trkpt lon="100.957870" lat="14.432001">
                <ele>130.400000</ele>
                <time>2015-09-26T08:22:27Z</time>
            </trkpt>
            <trkpt lon="100.957799" lat="14.432190">
                <ele>132.320000</ele>
                <time>2015-09-26T08:23:14Z</time>
            </trkpt>
            <trkpt lon="100.957694" lat="14.432343">
                <ele>132.800000</ele>
                <time>2015-09-26T08:23:24Z</time>
            </trkpt>
            <trkpt lon="100.956318" lat="14.433471">
                <ele>142.890000</ele>
                <time>2015-09-26T08:30:34Z</time>
            </trkpt>
            <trkpt lon="100.954810" lat="14.434114">
                <ele>150.100000</ele>
                <time>2015-09-26T08:32:23Z</time>
            </trkpt>
            <trkpt lon="100.954390" lat="14.434388">
                <ele>149.140000</ele>
                <time>2015-09-26T08:33:04Z</time>
            </trkpt>
            <trkpt lon="100.953652" lat="14.434542">
                <ele>152.990000</ele>
                <time>2015-09-26T08:34:00Z</time>
            </trkpt>
            <trkpt lon="100.953429" lat="14.434576">
                <ele>152.030000</ele>
                <time>2015-09-26T08:34:19Z</time>
            </trkpt>
            <trkpt lon="100.953167" lat="14.434735">
                <ele>152.990000</ele>
                <time>2015-09-26T08:34:52Z</time>
            </trkpt>
            <trkpt lon="100.953139" lat="14.435116">
                <ele>156.350000</ele>
                <time>2015-09-26T08:35:35Z</time>
            </trkpt>
            <trkpt lon="100.953101" lat="14.435340">
                <ele>155.870000</ele>
                <time>2015-09-26T08:35:49Z</time>
            </trkpt>
            <trkpt lon="100.952523" lat="14.435850">
                <ele>160.200000</ele>
                <time>2015-09-26T08:36:59Z</time>
            </trkpt>
            <trkpt lon="100.952199" lat="14.436342">
                <ele>164.040000</ele>
                <time>2015-09-26T08:37:57Z</time>
            </trkpt>
            <trkpt lon="100.952026" lat="14.436458">
                <ele>163.560000</ele>
                <time>2015-09-26T08:38:10Z</time>
            </trkpt>
            <trkpt lon="100.950930" lat="14.436815">
                <ele>164.040000</ele>
                <time>2015-09-26T08:39:16Z</time>
            </trkpt>
            <trkpt lon="100.950018" lat="14.436845">
                <ele>164.040000</ele>
                <time>2015-09-26T08:41:38Z</time>
            </trkpt>
            <trkpt lon="100.949390" lat="14.437843">
                <ele>166.450000</ele>
                <time>2015-09-26T08:43:48Z</time>
            </trkpt>
            <trkpt lon="100.948990" lat="14.438108">
                <ele>167.410000</ele>
                <time>2015-09-26T08:44:15Z</time>
            </trkpt>
            <trkpt lon="100.948905" lat="14.438156">
                <ele>167.410000</ele>
                <time>2015-09-26T08:44:21Z</time>
            </trkpt>
            <trkpt lon="100.948373" lat="14.438182">
                <ele>163.080000</ele>
                <time>2015-09-26T08:44:49Z</time>
            </trkpt>
            <trkpt lon="100.948147" lat="14.438096">
                <ele>156.350000</ele>
                <time>2015-09-26T08:45:27Z</time>
            </trkpt>
            <trkpt lon="100.947935" lat="14.438168">
                <ele>148.180000</ele>
                <time>2015-09-26T08:46:40Z</time>
            </trkpt>
            <trkpt lon="100.947724" lat="14.438411">
                <ele>142.890000</ele>
                <time>2015-09-26T08:47:01Z</time>
            </trkpt>
            <trkpt lon="100.947397" lat="14.438682">
                <ele>133.760000</ele>
                <time>2015-09-26T08:47:27Z</time>
            </trkpt>
            <trkpt lon="100.946942" lat="14.439356">
                <ele>121.260000</ele>
                <time>2015-09-26T08:48:43Z</time>
            </trkpt>
            <trkpt lon="100.946580" lat="14.439602">
                <ele>115.010000</ele>
                <time>2015-09-26T08:49:06Z</time>
            </trkpt>
            <trkpt lon="100.944964" lat="14.439916">
                <ele>98.670000</ele>
                <time>2015-09-26T08:50:58Z</time>
            </trkpt>
            <trkpt lon="100.942020" lat="14.441148">
                <ele>79.450000</ele>
                <time>2015-09-26T08:53:14Z</time>
            </trkpt>
            <trkpt lon="100.941756" lat="14.441591">
                <ele>75.600000</ele>
                <time>2015-09-26T08:53:37Z</time>
            </trkpt>
            <trkpt lon="100.941873" lat="14.442075">
                <ele>74.160000</ele>
                <time>2015-09-26T08:54:05Z</time>
            </trkpt>
            <trkpt lon="100.942085" lat="14.442361">
                <ele>72.240000</ele>
                <time>2015-09-26T08:54:30Z</time>
            </trkpt>
            <trkpt lon="100.941721" lat="14.442007">
                <ele>72.720000</ele>
                <time>2015-09-26T08:55:52Z</time>
            </trkpt>
            <trkpt lon="100.941129" lat="14.442226">
                <ele>69.830000</ele>
                <time>2015-09-26T08:56:18Z</time>
            </trkpt>
            <trkpt lon="100.941000" lat="14.443108">
                <ele>66.950000</ele>
                <time>2015-09-26T08:56:37Z</time>
            </trkpt>
            <trkpt lon="100.942163" lat="14.443439">
                <ele>67.910000</ele>
                <time>2015-09-26T08:57:16Z</time>
            </trkpt>
            <trkpt lon="100.942870" lat="14.444076">
                <ele>67.910000</ele>
                <time>2015-09-26T08:57:42Z</time>
            </trkpt>
            <trkpt lon="100.943314" lat="14.444654">
                <ele>67.910000</ele>
                <time>2015-09-26T08:58:00Z</time>
            </trkpt>
            <trkpt lon="100.943431" lat="14.445739">
                <ele>67.910000</ele>
                <time>2015-09-26T08:58:26Z</time>
            </trkpt>
            <trkpt lon="100.943427" lat="14.445785">
                <ele>67.430000</ele>
                <time>2015-09-26T08:58:27Z</time>
            </trkpt>
            <trkpt lon="100.943089" lat="14.446070">
                <ele>66.470000</ele>
                <time>2015-09-26T08:58:36Z</time>
            </trkpt>
            <trkpt lon="100.940781" lat="14.446967">
                <ele>59.740000</ele>
                <time>2015-09-26T08:59:12Z</time>
            </trkpt>
            <trkpt lon="100.940723" lat="14.447006">
                <ele>59.260000</ele>
                <time>2015-09-26T08:59:13Z</time>
            </trkpt>
            <trkpt lon="100.940500" lat="14.447335">
                <ele>58.780000</ele>
                <time>2015-09-26T08:59:19Z</time>
            </trkpt>
            <trkpt lon="100.940512" lat="14.447844">
                <ele>58.780000</ele>
                <time>2015-09-26T08:59:28Z</time>
            </trkpt>
            <trkpt lon="100.940488" lat="14.448133">
                <ele>58.300000</ele>
                <time>2015-09-26T08:59:33Z</time>
            </trkpt>
            <trkpt lon="100.940664" lat="14.448714">
                <ele>57.340000</ele>
                <time>2015-09-26T08:59:43Z</time>
            </trkpt>
            <trkpt lon="100.940915" lat="14.449326">
                <ele>56.860000</ele>
                <time>2015-09-26T08:59:54Z</time>
            </trkpt>
            <trkpt lon="100.941817" lat="14.450189">
                <ele>56.860000</ele>
                <time>2015-09-26T09:00:18Z</time>
            </trkpt>
            <trkpt lon="100.942184" lat="14.449903">
                <ele>57.820000</ele>
                <time>2015-09-26T09:00:35Z</time>
            </trkpt>
            <trkpt lon="100.943018" lat="14.449550">
                <ele>61.180000</ele>
                <time>2015-09-26T09:01:08Z</time>
            </trkpt>
            <trkpt lon="100.943915" lat="14.449179">
                <ele>64.070000</ele>
                <time>2015-09-26T09:01:50Z</time>
            </trkpt>
            <trkpt lon="100.944397" lat="14.449164">
                <ele>66.950000</ele>
                <time>2015-09-26T09:02:16Z</time>
            </trkpt>
            <trkpt lon="100.945054" lat="14.448730">
                <ele>73.200000</ele>
                <time>2015-09-26T09:03:11Z</time>
            </trkpt>
            <trkpt lon="100.945283" lat="14.448889">
                <ele>75.600000</ele>
                <time>2015-09-26T09:03:46Z</time>
            </trkpt>
            <trkpt lon="100.945163" lat="14.449545">
                <ele>75.600000</ele>
                <time>2015-09-26T09:05:05Z</time>
            </trkpt>
            <trkpt lon="100.944199" lat="14.450411">
                <ele>62.140000</ele>
                <time>2015-09-26T09:06:18Z</time>
            </trkpt>
            <trkpt lon="100.943596" lat="14.450805">
                <ele>57.820000</ele>
                <time>2015-09-26T09:07:15Z</time>
            </trkpt>
            <trkpt lon="100.943501" lat="14.450994">
                <ele>57.340000</ele>
                <time>2015-09-26T09:07:27Z</time>
            </trkpt>
            <trkpt lon="100.943705" lat="14.451196">
                <ele>57.340000</ele>
                <time>2015-09-26T09:07:39Z</time>
            </trkpt>
            <trkpt lon="100.943759" lat="14.451700">
                <ele>54.930000</ele>
                <time>2015-09-26T09:08:04Z</time>
            </trkpt>
            <trkpt lon="100.942700" lat="14.453763">
                <ele>51.090000</ele>
                <time>2015-09-26T09:08:54Z</time>
            </trkpt>
            <trkpt lon="100.942340" lat="14.453934">
                <ele>51.090000</ele>
                <time>2015-09-26T09:09:01Z</time>
            </trkpt>
            <trkpt lon="100.942167" lat="14.454083">
                <ele>50.130000</ele>
                <time>2015-09-26T09:09:05Z</time>
            </trkpt>
            <trkpt lon="100.942767" lat="14.455818">
                <ele>49.160000</ele>
                <time>2015-09-26T09:09:37Z</time>
            </trkpt>
            <trkpt lon="100.943029" lat="14.455932">
                <ele>49.160000</ele>
                <time>2015-09-26T09:09:43Z</time>
            </trkpt>
            <trkpt lon="100.943855" lat="14.455726">
                <ele>50.610000</ele>
                <time>2015-09-26T09:10:02Z</time>
            </trkpt>
            <trkpt lon="100.944317" lat="14.456128">
                <ele>50.610000</ele>
                <time>2015-09-26T09:10:16Z</time>
            </trkpt>
            <trkpt lon="100.945152" lat="14.456054">
                <ele>52.050000</ele>
                <time>2015-09-26T09:10:35Z</time>
            </trkpt>
            <trkpt lon="100.945393" lat="14.456170">
                <ele>52.530000</ele>
                <time>2015-09-26T09:10:41Z</time>
            </trkpt>
            <trkpt lon="100.946297" lat="14.457204">
                <ele>52.530000</ele>
                <time>2015-09-26T09:11:10Z</time>
            </trkpt>
            <trkpt lon="100.946165" lat="14.457539">
                <ele>51.570000</ele>
                <time>2015-09-26T09:11:31Z</time>
            </trkpt>
            <trkpt lon="100.946303" lat="14.457332">
                <ele>51.090000</ele>
                <time>2015-09-26T09:11:47Z</time>
            </trkpt>
            <trkpt lon="100.947052" lat="14.457440">
                <ele>52.050000</ele>
                <time>2015-09-26T09:12:24Z</time>
            </trkpt>
            <trkpt lon="100.948104" lat="14.457477">
                <ele>52.050000</ele>
                <time>2015-09-26T09:12:55Z</time>
            </trkpt>
            <trkpt lon="100.948134" lat="14.457440">
                <ele>51.090000</ele>
                <time>2015-09-26T09:14:24Z</time>
            </trkpt>
            <trkpt lon="100.948170" lat="14.457857">
                <ele>47.240000</ele>
                <time>2015-09-26T09:31:38Z</time>
            </trkpt>
            <trkpt lon="100.948492" lat="14.458527">
                <ele>45.800000</ele>
                <time>2015-09-26T09:31:52Z</time>
            </trkpt>
            <trkpt lon="100.948940" lat="14.458737">
                <ele>45.800000</ele>
                <time>2015-09-26T09:32:01Z</time>
            </trkpt>
            <trkpt lon="100.949169" lat="14.458999">
                <ele>45.800000</ele>
                <time>2015-09-26T09:32:08Z</time>
            </trkpt>
            <trkpt lon="100.949304" lat="14.459040">
                <ele>45.320000</ele>
                <time>2015-09-26T09:32:11Z</time>
            </trkpt>
            <trkpt lon="100.950722" lat="14.458795">
                <ele>48.680000</ele>
                <time>2015-09-26T09:32:42Z</time>
            </trkpt>
            <trkpt lon="100.951656" lat="14.458818">
                <ele>48.680000</ele>
                <time>2015-09-26T09:33:03Z</time>
            </trkpt>
            <trkpt lon="100.953303" lat="14.458533">
                <ele>49.160000</ele>
                <time>2015-09-26T09:33:37Z</time>
            </trkpt>
            <trkpt lon="100.954075" lat="14.458332">
                <ele>52.050000</ele>
                <time>2015-09-26T09:33:55Z</time>
            </trkpt>
            <trkpt lon="100.955404" lat="14.457713">
                <ele>56.370000</ele>
                <time>2015-09-26T09:34:31Z</time>
            </trkpt>
            <trkpt lon="100.956518" lat="14.457459">
                <ele>56.370000</ele>
                <time>2015-09-26T09:35:01Z</time>
            </trkpt>
            <trkpt lon="100.956050" lat="14.457585">
                <ele>55.890000</ele>
                <time>2015-09-26T09:35:14Z</time>
            </trkpt>
            <trkpt lon="100.956676" lat="14.458755">
                <ele>62.620000</ele>
                <time>2015-09-26T09:35:57Z</time>
            </trkpt>
            <trkpt lon="100.956986" lat="14.459319">
                <ele>64.550000</ele>
                <time>2015-09-26T09:36:16Z</time>
            </trkpt>
            <trkpt lon="100.958495" lat="14.461901">
                <ele>51.090000</ele>
                <time>2015-09-26T09:37:13Z</time>
            </trkpt>
            <trkpt lon="100.959577" lat="14.461957">
                <ele>51.570000</ele>
                <time>2015-09-26T09:38:25Z</time>
            </trkpt>
            <trkpt lon="100.960269" lat="14.460992">
                <ele>55.890000</ele>
                <time>2015-09-26T09:39:47Z</time>
            </trkpt>
            <trkpt lon="100.960548" lat="14.460939">
                <ele>50.130000</ele>
                <time>2015-09-26T09:40:00Z</time>
            </trkpt>
            <trkpt lon="100.961425" lat="14.462123">
                <ele>45.800000</ele>
                <time>2015-09-26T09:40:47Z</time>
            </trkpt>
            <trkpt lon="100.959718" lat="14.462932">
                <ele>44.840000</ele>
                <time>2015-09-26T09:41:59Z</time>
            </trkpt>
            <trkpt lon="100.959544" lat="14.463115">
                <ele>45.320000</ele>
                <time>2015-09-26T09:42:07Z</time>
            </trkpt>
            <trkpt lon="100.959869" lat="14.464744">
                <ele>41.950000</ele>
                <time>2015-09-26T09:42:35Z</time>
            </trkpt>
            <trkpt lon="100.960256" lat="14.465036">
                <ele>40.990000</ele>
                <time>2015-09-26T09:42:43Z</time>
            </trkpt>
            <trkpt lon="100.962074" lat="14.465196">
                <ele>40.030000</ele>
                <time>2015-09-26T09:43:11Z</time>
            </trkpt>
            <trkpt lon="100.964508" lat="14.464640">
                <ele>40.510000</ele>
                <time>2015-09-26T09:43:53Z</time>
            </trkpt>
            <trkpt lon="100.964686" lat="14.464778">
                <ele>40.990000</ele>
                <time>2015-09-26T09:43:59Z</time>
            </trkpt>
            <trkpt lon="100.964858" lat="14.465377">
                <ele>40.030000</ele>
                <time>2015-09-26T09:44:10Z</time>
            </trkpt>
            <trkpt lon="100.965841" lat="14.465777">
                <ele>39.070000</ele>
                <time>2015-09-26T09:44:25Z</time>
            </trkpt>
            <trkpt lon="100.968208" lat="14.465893">
                <ele>39.070000</ele>
                <time>2015-09-26T09:45:00Z</time>
            </trkpt>
            <trkpt lon="100.968215" lat="14.465903">
                <ele>38.590000</ele>
                <time>2015-09-26T09:45:03Z</time>
            </trkpt>
            <trkpt lon="100.970551" lat="14.463804">
                <ele>39.070000</ele>
                <time>2015-09-26T09:46:14Z</time>
            </trkpt>
            <trkpt lon="100.968220" lat="14.465869">
                <ele>39.070000</ele>
                <time>2015-09-26T09:47:15Z</time>
            </trkpt>
            <trkpt lon="100.969101" lat="14.468164">
                <ele>38.590000</ele>
                <time>2015-09-26T09:47:55Z</time>
            </trkpt>
            <trkpt lon="100.969309" lat="14.468366">
                <ele>38.590000</ele>
                <time>2015-09-26T09:48:00Z</time>
            </trkpt>
            <trkpt lon="100.969767" lat="14.467935">
                <ele>38.110000</ele>
                <time>2015-09-26T09:48:15Z</time>
            </trkpt>
            <trkpt lon="100.969295" lat="14.468357">
                <ele>38.110000</ele>
                <time>2015-09-26T09:48:46Z</time>
            </trkpt>
            <trkpt lon="100.969135" lat="14.468349">
                <ele>38.110000</ele>
                <time>2015-09-26T09:48:52Z</time>
            </trkpt>
            <trkpt lon="100.968831" lat="14.468759">
                <ele>38.110000</ele>
                <time>2015-09-26T09:49:07Z</time>
            </trkpt>
            <trkpt lon="100.968395" lat="14.468889">
                <ele>37.630000</ele>
                <time>2015-09-26T09:49:19Z</time>
            </trkpt>
            <trkpt lon="100.967966" lat="14.469225">
                <ele>37.630000</ele>
                <time>2015-09-26T09:49:32Z</time>
            </trkpt>
            <trkpt lon="100.967389" lat="14.470168">
                <ele>37.150000</ele>
                <time>2015-09-26T09:50:03Z</time>
            </trkpt>
            <trkpt lon="100.967965" lat="14.470928">
                <ele>37.150000</ele>
                <time>2015-09-26T09:50:22Z</time>
            </trkpt>
            <trkpt lon="100.968294" lat="14.472132">
                <ele>37.630000</ele>
                <time>2015-09-26T09:50:41Z</time>
            </trkpt>
            <trkpt lon="100.967993" lat="14.473087">
                <ele>36.670000</ele>
                <time>2015-09-26T09:50:56Z</time>
            </trkpt>
            <trkpt lon="100.967942" lat="14.474486">
                <ele>36.670000</ele>
                <time>2015-09-26T09:51:16Z</time>
            </trkpt>
            <trkpt lon="100.967944" lat="14.475311">
                <ele>36.190000</ele>
                <time>2015-09-26T09:51:29Z</time>
            </trkpt>
            <trkpt lon="100.968642" lat="14.476860">
                <ele>36.190000</ele>
                <time>2015-09-26T09:51:53Z</time>
            </trkpt>
            <trkpt lon="100.969202" lat="14.477393">
                <ele>36.190000</ele>
                <time>2015-09-26T09:52:04Z</time>
            </trkpt>
            <trkpt lon="100.969477" lat="14.479772">
                <ele>36.670000</ele>
                <time>2015-09-26T09:52:39Z</time>
            </trkpt>
            <trkpt lon="100.967153" lat="14.480505">
                <ele>35.230000</ele>
                <time>2015-09-26T09:53:14Z</time>
            </trkpt>
            <trkpt lon="100.966900" lat="14.481444">
                <ele>34.740000</ele>
                <time>2015-09-26T09:53:46Z</time>
            </trkpt>
            <trkpt lon="100.967180" lat="14.480522">
                <ele>34.740000</ele>
                <time>2015-09-26T09:54:20Z</time>
            </trkpt>
            <trkpt lon="100.967557" lat="14.480386">
                <ele>34.260000</ele>
                <time>2015-09-26T09:54:35Z</time>
            </trkpt>
            <trkpt lon="100.967096" lat="14.480534">
                <ele>34.740000</ele>
                <time>2015-09-26T09:54:54Z</time>
            </trkpt>
            <trkpt lon="100.968157" lat="14.480198">
                <ele>35.230000</ele>
                <time>2015-09-26T09:56:01Z</time>
            </trkpt>
            <trkpt lon="100.969430" lat="14.479818">
                <ele>35.230000</ele>
                <time>2015-09-26T09:56:25Z</time>
            </trkpt>
            <trkpt lon="100.969541" lat="14.479771">
                <ele>34.260000</ele>
                <time>2015-09-26T09:56:28Z</time>
            </trkpt>
            <trkpt lon="100.971164" lat="14.481171">
                <ele>33.300000</ele>
                <time>2015-09-26T09:58:22Z</time>
            </trkpt>
            <trkpt lon="100.971438" lat="14.481541">
                <ele>32.820000</ele>
                <time>2015-09-26T09:58:56Z</time>
            </trkpt>
            <trkpt lon="100.971404" lat="14.481864">
                <ele>32.820000</ele>
                <time>2015-09-26T09:59:25Z</time>
            </trkpt>
            <trkpt lon="100.970631" lat="14.482625">
                <ele>31.860000</ele>
                <time>2015-09-26T09:59:59Z</time>
            </trkpt>
            <trkpt lon="100.970541" lat="14.483020">
                <ele>32.340000</ele>
                <time>2015-09-26T10:00:16Z</time>
            </trkpt>
            <trkpt lon="100.970282" lat="14.483287">
                <ele>31.860000</ele>
                <time>2015-09-26T10:00:36Z</time>
            </trkpt>
            <trkpt lon="100.969967" lat="14.483339">
                <ele>31.860000</ele>
                <time>2015-09-26T10:00:53Z</time>
            </trkpt>
            <trkpt lon="100.969596" lat="14.483741">
                <ele>32.340000</ele>
                <time>2015-09-26T10:01:23Z</time>
            </trkpt>
            <trkpt lon="100.969981" lat="14.483581">
                <ele>32.340000</ele>
                <time>2015-09-26T10:01:44Z</time>
            </trkpt>
            <trkpt lon="100.970120" lat="14.483845">
                <ele>32.340000</ele>
                <time>2015-09-26T10:01:56Z</time>
            </trkpt>
            <trkpt lon="100.970273" lat="14.483872">
                <ele>32.340000</ele>
                <time>2015-09-26T10:02:00Z</time>
            </trkpt>
            <trkpt lon="100.970567" lat="14.483711">
                <ele>32.340000</ele>
                <time>2015-09-26T10:02:09Z</time>
            </trkpt>
            <trkpt lon="100.970720" lat="14.483341">
                <ele>32.340000</ele>
                <time>2015-09-26T10:02:17Z</time>
            </trkpt>
            <trkpt lon="100.970915" lat="14.483469">
                <ele>31.860000</ele>
                <time>2015-09-26T10:02:24Z</time>
            </trkpt>
            <trkpt lon="100.971606" lat="14.485255">
                <ele>31.860000</ele>
                <time>2015-09-26T10:02:58Z</time>
            </trkpt>
            <trkpt lon="100.972331" lat="14.488221">
                <ele>32.340000</ele>
                <time>2015-09-26T10:03:54Z</time>
            </trkpt>
            <trkpt lon="100.972276" lat="14.488344">
                <ele>32.820000</ele>
                <time>2015-09-26T10:03:58Z</time>
            </trkpt>
            <trkpt lon="100.971754" lat="14.488454">
                <ele>32.820000</ele>
                <time>2015-09-26T10:04:09Z</time>
            </trkpt>
            <trkpt lon="100.968657" lat="14.488933">
                <ele>32.820000</ele>
                <time>2015-09-26T10:04:58Z</time>
            </trkpt>
            <trkpt lon="100.968560" lat="14.488994">
                <ele>32.340000</ele>
                <time>2015-09-26T10:05:00Z</time>
            </trkpt>
            <trkpt lon="100.969684" lat="14.494145">
                <ele>32.340000</ele>
                <time>2015-09-26T10:06:24Z</time>
            </trkpt>
            <trkpt lon="100.970192" lat="14.494915">
                <ele>32.340000</ele>
                <time>2015-09-26T10:06:38Z</time>
            </trkpt>
            <trkpt lon="100.968718" lat="14.495113">
                <ele>32.340000</ele>
                <time>2015-09-26T10:07:12Z</time>
            </trkpt>
            <trkpt lon="100.968832" lat="14.495639">
                <ele>32.820000</ele>
                <time>2015-09-26T10:07:33Z</time>
            </trkpt>
            <trkpt lon="100.969152" lat="14.496774">
                <ele>31.380000</ele>
                <time>2015-09-26T10:08:00Z</time>
            </trkpt>
            <trkpt lon="100.968731" lat="14.496735">
                <ele>30.900000</ele>
                <time>2015-09-26T10:08:09Z</time>
            </trkpt>
            <trkpt lon="100.968522" lat="14.495701">
                <ele>32.820000</ele>
                <time>2015-09-26T10:08:30Z</time>
            </trkpt>
            <trkpt lon="100.968323" lat="14.495159">
                <ele>33.300000</ele>
                <time>2015-09-26T10:08:43Z</time>
            </trkpt>
            <trkpt lon="100.965899" lat="14.496270">
                <ele>31.380000</ele>
                <time>2015-09-26T10:09:27Z</time>
            </trkpt>
            <trkpt lon="100.964757" lat="14.496659">
                <ele>31.380000</ele>
                <time>2015-09-26T10:09:46Z</time>
            </trkpt>
            <trkpt lon="100.963862" lat="14.496850">
                <ele>31.380000</ele>
                <time>2015-09-26T10:10:00Z</time>
            </trkpt>
            <trkpt lon="100.960942" lat="14.496883">
                <ele>30.900000</ele>
                <time>2015-09-26T10:10:47Z</time>
            </trkpt>
            <trkpt lon="100.960842" lat="14.498910">
                <ele>30.900000</ele>
                <time>2015-09-26T10:11:21Z</time>
            </trkpt>
            <trkpt lon="100.960635" lat="14.499289">
                <ele>30.900000</ele>
                <time>2015-09-26T10:11:28Z</time>
            </trkpt>
            <trkpt lon="100.959627" lat="14.500112">
                <ele>30.420000</ele>
                <time>2015-09-26T10:11:48Z</time>
            </trkpt>
            <trkpt lon="100.959047" lat="14.500899">
                <ele>30.420000</ele>
                <time>2015-09-26T10:12:04Z</time>
            </trkpt>
            <trkpt lon="100.957787" lat="14.501390">
                <ele>29.940000</ele>
                <time>2015-09-26T10:12:26Z</time>
            </trkpt>
            <trkpt lon="100.957034" lat="14.502295">
                <ele>29.940000</ele>
                <time>2015-09-26T10:12:47Z</time>
            </trkpt>
            <trkpt lon="100.956108" lat="14.502609">
                <ele>28.500000</ele>
                <time>2015-09-26T10:13:11Z</time>
            </trkpt>
            <trkpt lon="100.955579" lat="14.503326">
                <ele>29.940000</ele>
                <time>2015-09-26T10:13:35Z</time>
            </trkpt>
            <trkpt lon="100.955221" lat="14.503484">
                <ele>30.900000</ele>
                <time>2015-09-26T10:13:45Z</time>
            </trkpt>
            <trkpt lon="100.955060" lat="14.503677">
                <ele>30.900000</ele>
                <time>2015-09-26T10:13:52Z</time>
            </trkpt>
            <trkpt lon="100.954397" lat="14.503814">
                <ele>31.380000</ele>
                <time>2015-09-26T10:14:09Z</time>
            </trkpt>
            <trkpt lon="100.953939" lat="14.504448">
                <ele>31.860000</ele>
                <time>2015-09-26T10:14:31Z</time>
            </trkpt>
            <trkpt lon="100.954175" lat="14.505023">
                <ele>30.420000</ele>
                <time>2015-09-26T10:14:44Z</time>
            </trkpt>
            <trkpt lon="100.954233" lat="14.507083">
                <ele>28.020000</ele>
                <time>2015-09-26T10:16:02Z</time>
            </trkpt>
            <trkpt lon="100.954278" lat="14.507149">
                <ele>27.530000</ele>
                <time>2015-09-26T10:16:15Z</time>
            </trkpt>
            <trkpt lon="100.954069" lat="14.507598">
                <ele>27.530000</ele>
                <time>2015-09-26T10:16:47Z</time>
            </trkpt>
            <trkpt lon="100.953849" lat="14.507589">
                <ele>27.530000</ele>
                <time>2015-09-26T10:16:57Z</time>
            </trkpt>
            <trkpt lon="100.953650" lat="14.507810">
                <ele>27.530000</ele>
                <time>2015-09-26T10:17:10Z</time>
            </trkpt>
            <trkpt lon="100.953659" lat="14.508250">
                <ele>27.530000</ele>
                <time>2015-09-26T10:17:32Z</time>
            </trkpt>
            <trkpt lon="100.953428" lat="14.508374">
                <ele>27.050000</ele>
                <time>2015-09-26T10:17:44Z</time>
            </trkpt>
            <trkpt lon="100.953199" lat="14.508894">
                <ele>27.530000</ele>
                <time>2015-09-26T10:18:08Z</time>
            </trkpt>
            <trkpt lon="100.952640" lat="14.509047">
                <ele>28.020000</ele>
                <time>2015-09-26T10:18:29Z</time>
            </trkpt>
            <trkpt lon="100.950157" lat="14.510267">
                <ele>29.460000</ele>
                <time>2015-09-26T10:19:48Z</time>
            </trkpt>
            <trkpt lon="100.949666" lat="14.510537">
                <ele>29.460000</ele>
                <time>2015-09-26T10:20:03Z</time>
            </trkpt>
            <trkpt lon="100.949393" lat="14.510719">
                <ele>30.420000</ele>
                <time>2015-09-26T10:20:15Z</time>
            </trkpt>
            <trkpt lon="100.949389" lat="14.511023">
                <ele>30.900000</ele>
                <time>2015-09-26T10:20:25Z</time>
            </trkpt>
            <trkpt lon="100.948644" lat="14.512430">
                <ele>31.380000</ele>
                <time>2015-09-26T10:21:06Z</time>
            </trkpt>
            <trkpt lon="100.948244" lat="14.512915">
                <ele>30.420000</ele>
                <time>2015-09-26T10:21:20Z</time>
            </trkpt>
            <trkpt lon="100.948179" lat="14.513566">
                <ele>28.500000</ele>
                <time>2015-09-26T10:21:37Z</time>
            </trkpt>
            <trkpt lon="100.948361" lat="14.513761">
                <ele>28.500000</ele>
                <time>2015-09-26T10:21:44Z</time>
            </trkpt>
            <trkpt lon="100.948410" lat="14.513968">
                <ele>28.020000</ele>
                <time>2015-09-26T10:21:49Z</time>
            </trkpt>
            <trkpt lon="100.948159" lat="14.514595">
                <ele>27.050000</ele>
                <time>2015-09-26T10:22:03Z</time>
            </trkpt>
            <trkpt lon="100.948275" lat="14.515223">
                <ele>26.090000</ele>
                <time>2015-09-26T10:22:20Z</time>
            </trkpt>
            <trkpt lon="100.947685" lat="14.516562">
                <ele>26.570000</ele>
                <time>2015-09-26T10:22:55Z</time>
            </trkpt>
            <trkpt lon="100.947628" lat="14.516760">
                <ele>26.090000</ele>
                <time>2015-09-26T10:22:59Z</time>
            </trkpt>
            <trkpt lon="100.947735" lat="14.517566">
                <ele>25.610000</ele>
                <time>2015-09-26T10:23:16Z</time>
            </trkpt>
            <trkpt lon="100.947608" lat="14.518093">
                <ele>25.610000</ele>
                <time>2015-09-26T10:23:27Z</time>
            </trkpt>
            <trkpt lon="100.947820" lat="14.518731">
                <ele>24.650000</ele>
                <time>2015-09-26T10:23:40Z</time>
            </trkpt>
            <trkpt lon="100.947788" lat="14.519321">
                <ele>24.650000</ele>
                <time>2015-09-26T10:23:56Z</time>
            </trkpt>
            <trkpt lon="100.947449" lat="14.519632">
                <ele>26.570000</ele>
                <time>2015-09-26T10:24:08Z</time>
            </trkpt>
            <trkpt lon="100.942919" lat="14.521548">
                <ele>33.300000</ele>
                <time>2015-09-26T10:26:04Z</time>
            </trkpt>
            <trkpt lon="100.942680" lat="14.521505">
                <ele>33.300000</ele>
                <time>2015-09-26T10:26:16Z</time>
            </trkpt>
            <trkpt lon="100.942795" lat="14.520231">
                <ele>34.260000</ele>
                <time>2015-09-26T10:26:44Z</time>
            </trkpt>
            <trkpt lon="100.942861" lat="14.518342">
                <ele>33.780000</ele>
                <time>2015-09-26T10:27:31Z</time>
            </trkpt>
            <trkpt lon="100.943606" lat="14.518128">
                <ele>31.860000</ele>
                <time>2015-09-26T10:32:27Z</time>
            </trkpt>
            <trkpt lon="100.942897" lat="14.518361">
                <ele>33.780000</ele>
                <time>2015-09-26T10:33:11Z</time>
            </trkpt>
            <trkpt lon="100.942984" lat="14.518669">
                <ele>32.820000</ele>
                <time>2015-09-26T10:33:23Z</time>
            </trkpt>
            <trkpt lon="100.943142" lat="14.518660">
                <ele>32.340000</ele>
                <time>2015-09-26T10:33:28Z</time>
            </trkpt>
            <trkpt lon="100.943649" lat="14.518012">
                <ele>32.820000</ele>
                <time>2015-09-26T10:33:50Z</time>
            </trkpt>
            <trkpt lon="100.943261" lat="14.517978">
                <ele>33.780000</ele>
                <time>2015-09-26T10:34:16Z</time>
            </trkpt>
        </trkseg>
    </trk>
</gpx>